Flight NumberIRM076 Date07.06.2018
Departure AirportZSPD Arrival AirportOIIE
Departure Time23.14Arrival Time7.09
Pilot In CommandSaeed TabaTabaei Block Time7.90 Hours
Pilot Rating100 % AircraftEP-MNF [ A310-300ET ]


Distance3,483.00 Nm. Passengers202
Fuel Used36,203 Kg. Cargo16689 Kg
Expense Details Income Details
Fuel Cost45,338 v$Ticket Sales121,200 v$
Pilot Salary13,011 v$ Cargo income36,985.00 v$
Crew Salary1,010 v$ Bonus21,685 v$
Gross Profit117,103 v$ ( 1,171,030 v$ )

Client Versionv2.2.0.rc3 Max Simrate1
Flight Critique Pilot CommentsOIIE 071900Z 27006KT CAVOK 28/M01 Q1015// MUXO1V ILS RWY 29R

[ Back ]
FSA VA Integration Pack
Copyright © 2010 FSAirlines.net. Version : 0.1.1